createdAt,value
2023-01-05T00:02:05.552Z,83.87
2023-01-05T00:04:33.315Z,83.72
2023-01-05T00:07:01.131Z,83.81
2023-01-05T00:09:28.770Z,83.91
2023-01-05T00:12:14.942Z,83.84
2023-01-05T00:15:03.823Z,83.80
2023-01-05T00:17:49.840Z,83.81
2023-01-05T00:20:41.426Z,84.02
2023-01-05T00:23:10.028Z,83.96
2023-01-05T00:25:40.190Z,84.03
2023-01-05T00:28:08.614Z,84.13
2023-01-05T00:30:41.107Z,84.10
2023-01-05T00:33:26.874Z,84.14
2023-01-05T00:35:54.529Z,84.26
2023-01-05T00:38:22.223Z,84.35
2023-01-05T00:40:51.127Z,84.32
2023-01-05T00:43:37.250Z,84.36
2023-01-05T00:46:05.044Z,84.32
2023-01-05T00:48:32.763Z,84.24
2023-01-05T00:51:00.517Z,84.65
2023-01-05T00:53:46.173Z,85.00
2023-01-05T06:30:26.920Z,97.86
2023-01-05T06:32:54.804Z,97.62
2023-01-05T06:35:22.710Z,97.49
2023-01-05T06:37:50.488Z,97.36
2023-01-05T06:40:18.300Z,97.48
2023-01-05T06:42:46.071Z,97.41
2023-01-05T06:45:16.051Z,97.32
2023-01-05T06:47:44.459Z,97.42
2023-01-05T06:50:12.491Z,97.41
2023-01-05T06:52:41.288Z,97.43
2023-01-05T06:55:13.051Z,97.37
2023-01-05T06:57:40.761Z,97.36
2023-01-05T07:00:11.634Z,97.34
2023-01-05T07:02:39.410Z,97.11
2023-01-05T07:05:07.727Z,96.82
2023-01-05T07:07:35.690Z,96.79
2023-01-05T07:10:03.734Z,96.52
2023-01-05T07:12:31.500Z,96.31
2023-01-05T07:14:59.248Z,96.09
2023-01-05T07:17:27.545Z,96.00
2023-01-05T07:19:55.438Z,95.87
2023-01-05T07:22:23.120Z,95.26
2023-01-05T07:24:50.863Z,95.53
2023-01-05T07:27:18.565Z,95.84
2023-01-05T07:29:46.366Z,99.61
2023-01-05T07:32:14.165Z,100.00
2023-01-05T07:34:44.873Z,94.70
2023-01-05T07:37:19.067Z,89.32
2023-01-05T07:39:46.811Z,87.55
2023-01-05T07:42:14.528Z,85.69
2023-01-05T07:44:42.210Z,87.72
2023-01-05T07:47:09.846Z,88.85
2023-01-05T07:49:37.636Z,89.49
2023-01-05T07:52:05.527Z,90.06
2023-01-05T07:57:01.061Z,90.85
2023-01-05T07:59:28.705Z,91.12
2023-01-05T08:01:56.893Z,91.41
2023-01-05T08:04:24.871Z,92.06
2023-01-05T08:06:53.672Z,92.05
2023-01-05T08:09:40.083Z,92.24
2023-01-05T08:12:08.169Z,92.88
2023-01-05T08:14:35.858Z,92.89
2023-01-05T08:17:03.595Z,93.02
2023-01-05T08:19:31.382Z,93.18
2023-01-05T08:21:59.113Z,93.60
2023-01-05T08:24:26.862Z,93.58
2023-01-05T08:26:54.620Z,93.65
2023-01-05T08:29:22.651Z,93.85
2023-01-05T08:31:50.751Z,94.15
2023-01-05T08:34:18.753Z,94.37
2023-01-05T08:36:47.635Z,94.64
2023-01-05T08:39:15.353Z,94.56
2023-01-05T08:41:43.277Z,94.92
2023-01-05T08:44:15.240Z,94.81
2023-01-05T08:46:43.056Z,95.45
2023-01-05T08:49:11.006Z,95.18
2023-01-05T08:51:39.401Z,95.04
2023-01-05T08:54:07.275Z,95.11
2023-01-05T08:56:38.939Z,95.07
2023-01-05T08:59:07.545Z,94.95
2023-01-05T09:01:35.511Z,94.91
2023-01-05T09:04:03.243Z,95.10
2023-01-05T09:06:30.929Z,95.18
2023-01-05T09:08:58.648Z,95.61
2023-01-05T09:11:27.170Z,95.50
2023-01-05T09:13:57.791Z,95.68
2023-01-05T09:16:57.281Z,95.74
2023-01-05T09:19:16.544Z,95.81
2023-01-05T09:21:44.411Z,95.61
2023-01-05T09:24:15.849Z,95.83
2023-01-05T09:26:44.154Z,95.73
2023-01-05T09:29:13.220Z,95.92
2023-01-05T09:31:44.348Z,96.04
2023-01-05T09:34:12.201Z,96.10
2023-01-05T09:36:40.029Z,95.86
2023-01-05T09:39:07.803Z,95.85
2023-01-05T09:41:48.560Z,96.12
2023-01-05T09:44:31.617Z,96.09
2023-01-05T09:47:17.976Z,96.04
2023-01-05T09:49:49.382Z,95.99
2023-01-05T09:52:20.489Z,95.48
2023-01-05T09:54:48.236Z,95.33
2023-01-05T09:57:22.981Z,95.05
2023-01-05T09:59:53.714Z,94.97
2023-01-05T10:02:48.445Z,94.27
2023-01-05T10:05:16.769Z,94.54
2023-01-05T10:07:55.186Z,93.59
2023-01-05T10:11:22.969Z,93.87
2023-01-05T10:14:03.139Z,92.98
2023-01-05T10:16:31.379Z,92.68
2023-01-05T10:18:59.675Z,93.02
2023-01-05T10:21:27.332Z,91.99
2023-01-05T10:24:22.953Z,91.25
2023-01-05T10:27:24.161Z,91.60
2023-01-05T10:29:50.254Z,91.00
2023-01-05T10:32:31.412Z,91.08
2023-01-05T10:35:01.684Z,90.25
2023-01-05T10:37:50.665Z,90.27
2023-01-05T10:40:32.529Z,89.87
2023-01-05T10:43:39.585Z,89.38
2023-01-05T10:49:01.129Z,88.68
2023-01-05T10:51:34.471Z,88.22
2023-01-05T10:54:04.465Z,87.86
2023-01-05T10:56:33.831Z,87.97
2023-01-05T10:59:13.722Z,87.84
2023-01-05T11:01:47.069Z,86.67
2023-01-05T11:07:08.231Z,86.35
2023-01-05T11:09:41.800Z,86.04
2023-01-05T11:12:20.253Z,85.24
2023-01-05T11:14:59.174Z,84.42
2023-01-05T11:17:29.167Z,84.10
2023-01-05T11:19:59.109Z,84.06
2023-01-05T11:22:45.462Z,83.44
2023-01-05T11:25:33.080Z,82.11
2023-01-05T11:28:18.624Z,82.60
2023-01-05T11:31:02.955Z,81.68
2023-01-05T11:33:32.659Z,81.65
2023-01-05T11:36:01.235Z,80.66
2023-01-05T11:38:31.859Z,80.96
2023-01-05T11:41:01.785Z,81.54
2023-01-05T11:43:33.454Z,81.12
2023-01-05T11:46:05.965Z,80.94
2023-01-05T11:48:36.804Z,80.46
2023-01-05T11:51:04.609Z,80.50
2023-01-05T11:53:35.266Z,80.81
2023-01-05T11:56:05.891Z,80.99
2023-01-05T11:58:45.538Z,81.09
2023-01-05T12:01:28.405Z,81.13
2023-01-05T12:04:23.881Z,81.27
2023-01-05T12:06:55.169Z,80.69
2023-01-05T12:09:35.173Z,80.15
2023-01-05T12:12:37.334Z,80.47
2023-01-05T12:15:04.893Z,80.70
2023-01-05T12:17:51.662Z,79.92
2023-01-05T12:20:50.997Z,78.88
2023-01-05T12:23:54.475Z,79.67
2023-01-05T12:26:25.316Z,78.19
2023-01-05T12:35:25.224Z,78.59
2023-01-05T12:38:24.080Z,77.88
2023-01-05T12:41:13.132Z,78.14
2023-01-05T12:43:55.771Z,78.55
2023-01-05T12:47:01.611Z,78.82
2023-01-05T12:49:36.291Z,78.63
2023-01-05T12:52:09.783Z,77.29
2023-01-05T12:54:46.793Z,78.03
2023-01-05T12:57:37.811Z,77.41
2023-01-05T13:00:19.495Z,78.33
2023-01-05T13:02:58.717Z,77.02
2023-01-05T13:05:46.485Z,76.81
2023-01-05T13:08:18.654Z,76.50
2023-01-05T13:11:22.813Z,77.12
2023-01-05T13:14:01.337Z,76.70
2023-01-05T13:16:37.824Z,77.22
2023-01-05T13:19:45.961Z,77.16
2023-01-05T13:22:36.323Z,77.37
2023-01-05T13:25:26.334Z,78.12
2023-01-05T13:27:54.159Z,78.52
2023-01-05T13:30:31.384Z,78.66
2023-01-05T13:33:12.796Z,78.66
2023-01-05T13:35:40.378Z,78.79
2023-01-05T13:38:17.986Z,78.93
2023-01-05T13:41:02.065Z,79.02
2023-01-05T13:44:03.798Z,79.11
2023-01-05T13:47:08.846Z,79.33
2023-01-05T13:50:09.786Z,79.55
2023-01-05T13:53:12.979Z,78.96
2023-01-05T13:55:48.378Z,79.44
2023-01-05T14:01:15.373Z,79.78
2023-01-05T14:03:56.193Z,79.81
2023-01-05T14:06:35.970Z,79.74
2023-01-05T14:09:18.576Z,79.94
2023-01-05T14:12:08.208Z,79.72
2023-01-05T14:15:03.833Z,79.60
2023-01-05T14:17:53.469Z,79.68
2023-01-05T14:20:50.110Z,79.77
2023-01-05T14:23:26.760Z,80.15
2023-01-05T14:26:05.484Z,80.15
2023-01-05T14:28:39.384Z,80.27
2023-01-05T14:31:15.437Z,80.51
2023-01-05T14:34:01.971Z,80.40
2023-01-05T14:36:34.929Z,80.70
2023-01-05T14:39:24.172Z,80.60
2023-01-05T14:42:29.890Z,80.60
2023-01-05T14:45:11.017Z,80.69
2023-01-05T14:47:45.013Z,80.97
2023-01-05T14:50:42.221Z,81.12
2023-01-05T14:53:09.932Z,81.12
2023-01-05T14:55:43.117Z,81.06
2023-01-05T14:58:35.740Z,81.14
2023-01-05T15:01:21.120Z,81.46
2023-01-05T15:04:12.662Z,81.72
2023-01-05T15:06:51.192Z,81.57
2023-01-05T15:09:39.177Z,81.71
2023-01-05T15:12:27.813Z,81.54
2023-01-05T15:15:40.774Z,81.50
2023-01-05T15:18:15.597Z,81.58
2023-01-05T15:20:46.927Z,81.91
2023-01-05T15:23:51.937Z,81.99
2023-01-05T15:26:49.918Z,81.88
2023-01-05T15:29:29.598Z,82.08
2023-01-05T15:32:07.563Z,82.37
2023-01-05T15:34:45.911Z,82.51
2023-01-05T15:37:39.199Z,82.44
2023-01-05T15:40:28.633Z,82.74
2023-01-05T15:43:00.358Z,82.85
2023-01-05T15:45:31.910Z,82.89
2023-01-05T15:48:08.468Z,83.03
2023-01-05T15:50:55.187Z,83.17
2023-01-05T15:53:33.119Z,83.11
2023-01-05T15:56:01.664Z,82.89
2023-01-05T15:58:33.414Z,83.17
2023-01-05T16:01:21.614Z,83.20
2023-01-05T16:03:50.872Z,83.17
2023-01-05T16:06:30.300Z,83.43
2023-01-05T16:09:03.240Z,83.40
2023-01-05T16:11:40.768Z,83.48
2023-01-05T16:14:20.200Z,83.38
2023-01-05T16:16:55.680Z,83.56
2023-01-05T16:19:42.581Z,83.67
2023-01-05T16:22:33.391Z,83.70
2023-01-05T16:25:07.465Z,83.66
2023-01-05T16:27:43.251Z,83.85
2023-01-05T16:30:27.479Z,83.95
2023-01-05T16:33:04.888Z,84.06
2023-01-05T16:35:36.539Z,84.28
2023-01-05T16:38:10.719Z,84.39
2023-01-05T16:40:56.195Z,84.50
2023-01-05T16:43:32.233Z,84.68
2023-01-05T16:46:20.550Z,84.86
2023-01-05T16:49:00.014Z,84.92
2023-01-05T16:51:33.918Z,85.33
2023-01-05T16:54:13.609Z,85.29
2023-01-05T16:56:56.839Z,85.27
2023-01-05T16:59:36.345Z,85.30
2023-01-05T17:02:04.039Z,85.46
2023-01-05T17:04:31.819Z,85.57
2023-01-05T17:07:00.246Z,85.56
2023-01-05T17:09:34.515Z,85.63
2023-01-05T17:12:02.298Z,85.80
2023-01-05T17:14:30.064Z,85.90
2023-01-05T17:17:00.156Z,86.07
2023-01-05T17:19:28.195Z,86.23
2023-01-05T17:22:00.261Z,86.41
2023-01-05T17:24:29.320Z,86.54
2023-01-05T17:26:57.284Z,86.61
2023-01-05T17:29:33.532Z,86.90
2023-01-05T17:32:01.228Z,87.07
2023-01-05T17:34:28.923Z,87.20
2023-01-05T17:36:59.808Z,87.33
2023-01-05T17:39:27.911Z,87.25
2023-01-05T17:42:15.592Z,87.30
2023-01-05T17:44:43.295Z,87.32
2023-01-05T17:47:11.006Z,87.86
2023-01-05T17:49:38.697Z,87.64
2023-01-05T17:52:06.462Z,87.62
2023-01-05T17:54:34.190Z,87.73
2023-01-05T17:57:02.331Z,87.85
2023-01-05T17:59:30.092Z,87.99
2023-01-05T18:01:57.953Z,87.98
2023-01-05T18:04:27.186Z,88.10
2023-01-05T18:06:56.351Z,88.08
2023-01-05T18:11:56.603Z,88.31
2023-01-05T18:14:24.340Z,88.28
2023-01-05T18:16:52.018Z,88.75
2023-01-05T18:19:20.594Z,88.64
2023-01-05T18:21:48.262Z,88.79
2023-01-05T18:24:16.032Z,88.87
2023-01-05T18:26:43.702Z,89.01
2023-01-05T18:29:11.462Z,89.10
2023-01-05T18:31:41.844Z,89.18
2023-01-05T18:34:11.200Z,89.32
2023-01-05T18:36:38.826Z,89.40
2023-01-05T18:39:07.955Z,89.59
2023-01-05T18:41:35.682Z,89.59
2023-01-05T18:44:03.514Z,89.80
2023-01-05T18:46:31.756Z,89.72
2023-01-05T18:48:59.687Z,89.87
2023-01-05T18:51:27.521Z,89.98
2023-01-05T18:53:55.236Z,90.07
2023-01-05T18:56:22.994Z,90.17
2023-01-05T19:01:23.398Z,90.34
2023-01-05T19:03:52.296Z,90.50
2023-01-05T19:06:23.376Z,90.65
2023-01-05T19:08:52.099Z,90.75
2023-01-05T19:11:28.436Z,90.97
2023-01-05T19:13:57.929Z,91.13
2023-01-05T19:16:28.824Z,91.04
2023-01-05T19:19:04.520Z,91.17
2023-01-05T19:21:34.375Z,91.18
2023-01-05T19:24:03.529Z,91.30
2023-01-05T19:26:33.477Z,91.56
2023-01-05T19:29:03.238Z,91.43
2023-01-05T19:31:31.461Z,91.61
2023-01-05T19:34:02.305Z,91.79
2023-01-05T19:36:36.611Z,91.87
2023-01-05T19:39:15.879Z,92.04
2023-01-05T19:41:46.895Z,92.17
2023-01-05T19:44:17.245Z,92.28
2023-01-05T19:46:45.813Z,92.48
2023-01-05T19:49:18.771Z,92.60
2023-01-05T19:51:47.105Z,92.72
2023-01-05T19:54:15.939Z,94.01
2023-01-05T19:56:44.964Z,93.47
2023-01-05T19:59:27.332Z,93.44
2023-01-05T20:01:57.235Z,93.61
2023-01-05T20:04:24.963Z,93.47
2023-01-05T20:06:52.701Z,93.42
2023-01-05T20:09:21.131Z,93.48
2023-01-05T20:11:53.056Z,93.56
2023-01-05T20:14:28.400Z,93.96
2023-01-05T20:17:14.877Z,93.91
2023-01-05T20:19:42.577Z,93.91
2023-01-05T20:22:14.889Z,93.82
2023-01-05T20:24:46.589Z,93.93
2023-01-05T20:27:15.991Z,93.99
2023-01-05T20:29:43.748Z,94.01
2023-01-05T20:32:18.840Z,94.00
2023-01-05T20:34:52.974Z,94.33
2023-01-05T20:37:22.011Z,94.06
2023-01-05T20:39:49.683Z,94.19
2023-01-05T20:42:17.384Z,94.32
2023-01-05T20:44:47.649Z,94.19
2023-01-05T20:47:16.389Z,94.40
2023-01-05T20:49:46.356Z,94.20
2023-01-05T20:52:16.397Z,94.18
2023-01-05T20:54:44.725Z,94.46
2023-01-05T20:57:13.108Z,94.31
2023-01-05T20:59:41.749Z,94.60
2023-01-05T21:02:22.848Z,94.83
2023-01-05T21:04:52.282Z,94.86
2023-01-05T21:07:21.330Z,94.82
2023-01-05T21:09:51.170Z,94.88
2023-01-05T21:12:19.979Z,94.95
2023-01-05T21:14:47.788Z,95.31
2023-01-05T21:17:15.565Z,94.93
2023-01-05T21:19:43.276Z,95.12
2023-01-05T21:22:11.071Z,95.12
2023-01-05T21:24:38.807Z,94.96
2023-01-05T21:27:06.480Z,95.01
2023-01-05T21:29:34.373Z,95.18
2023-01-05T21:32:02.168Z,94.95
2023-01-05T21:34:29.900Z,95.03
2023-01-05T21:36:57.619Z,95.14
2023-01-05T21:39:27.001Z,95.11
2023-01-05T21:42:13.653Z,95.19
2023-01-05T21:44:41.690Z,95.06
2023-01-05T21:47:09.660Z,95.17
2023-01-05T21:49:37.457Z,94.83
2023-01-05T21:52:24.947Z,95.19
2023-01-05T21:55:11.222Z,94.79
2023-01-05T21:57:38.985Z,94.99
2023-01-05T22:00:08.206Z,94.89
2023-01-05T22:02:36.020Z,94.85
2023-01-05T22:05:03.988Z,94.85
2023-01-05T22:07:31.746Z,94.80
2023-01-05T22:09:59.499Z,94.97
2023-01-05T22:12:27.293Z,95.15
2023-01-05T22:14:54.995Z,95.17
2023-01-05T22:17:22.732Z,95.30
2023-01-05T22:19:50.441Z,95.45
2023-01-05T22:22:18.261Z,95.52
2023-01-05T22:24:46.053Z,95.52
2023-01-05T22:27:14.233Z,95.53
2023-01-05T22:29:42.000Z,95.59
2023-01-05T22:32:09.634Z,95.59
2023-01-05T22:34:39.053Z,95.73
2023-01-05T22:37:06.724Z,95.70
2023-01-05T22:39:34.378Z,95.91
2023-01-05T22:42:02.125Z,96.08
2023-01-05T22:44:29.881Z,95.67
2023-01-05T22:46:58.579Z,95.89
2023-01-05T22:49:26.323Z,96.18
2023-01-05T22:51:54.023Z,95.93
2023-01-05T22:54:21.867Z,95.98
2023-01-05T22:56:49.504Z,96.14
2023-01-05T22:59:17.243Z,96.15
2023-01-05T23:01:48.504Z,95.69
2023-01-05T23:04:17.259Z,95.67
2023-01-05T23:06:45.531Z,96.00
2023-01-05T23:09:15.677Z,96.25
2023-01-05T23:11:46.153Z,96.48
2023-01-05T23:14:15.071Z,96.28
2023-01-05T23:16:43.047Z,96.33
2023-01-05T23:19:11.074Z,96.39
2023-01-05T23:21:38.887Z,96.35
2023-01-05T23:24:06.781Z,96.51
2023-01-05T23:26:34.430Z,96.24
2023-01-05T23:29:02.279Z,96.75
2023-01-05T23:31:29.987Z,96.50
2023-01-05T23:33:58.492Z,96.79
2023-01-05T23:36:26.188Z,96.36
2023-01-05T23:38:53.898Z,96.61
2023-01-05T23:41:21.792Z,96.99
2023-01-05T23:43:49.548Z,96.84
2023-01-05T23:46:22.434Z,96.72
2023-01-05T23:48:51.602Z,96.86
2023-01-05T23:51:19.871Z,96.89
2023-01-05T23:53:50.388Z,96.39
2023-01-05T23:56:24.126Z,96.63
2023-01-05T23:59:00.050Z,96.60
